Weather at Jarlsberg Airfield

Public forecast

Using degrees Celsius for public forecast. Weather courtesy of forecast.io.

Closest aviation weather report (METAR) to Jarlsberg Airfield

Closest report is Sandefjord Airport, Torp, 7.6 nm (14.0 km) SSW.

2024/05/20 17:20 (retrieved 36 minutes ago)

ENTO 201720Z 13004KT CAVOK 20/05 Q1018 NOSIG

Closest aviation forecast (TAF) to Jarlsberg Airfield

Closest forecast is Sandefjord Airport, Torp, 7.6 nm (14.0 km) SSW.

2024/05/20 12:39 (retrieved 5 hours ago)

TAF ENTO 201100Z 2012/2112 11008KT CAVOK